This is the latest recevied weather packets stored in our database for station/object VA7IM-13. If no packets are shown the sender has not sent any weather packets the latest 1 day(s).
| Time | Temp. | Humidity | Pressure | Rain* | Wind** | Luminosity | Snow |
|---|---|---|---|---|---|---|---|
| 1778041618 | 13.89° C | - | - | 0 mm | 0 m/s | - | - |
| 1778041318 | 13.89° C | - | - | 0 mm | 0 m/s | - | - |
| 1778040717 | 14.44° C | - | - | 0 mm | 0 m/s | - | - |
| 1778040417 | 14.44° C | - | - | 0 mm | 0.45 m/s, 113° | - | - |
| 1778040118 | 14.44° C | - | - | 0 mm | 1.79 m/s, 113° | - | - |
| 1778039818 | 15° C | - | - | 0 mm | 1.79 m/s, 135° | - | - |
| 1778039517 | 15° C | - | - | 0 mm | 1.34 m/s, 113° | - | - |
| 1778038618 | 15° C | - | - | 0 mm | 1.79 m/s, 135° | - | - |
| 1778038317 | 15° C | - | - | 0 mm | 1.34 m/s, 135° | - | - |
| 1778038017 | - | - | - | 0 mm | 1.79 m/s, 158° | - | - |
| 1778037717 | 15° C | - | - | 0 mm | 1.79 m/s, 90° | - | - |
| 1778037419 | 15.56° C | - | - | 0 mm | 1.79 m/s, 135° | - | - |
| 1778036219 | - | - | - | 0 mm | 1.79 m/s, 23° | - | - |
| 1778035317 | 16.11° C | - | - | 0 mm | 3.13 m/s, 158° | - | - |
| 1778035017 | 16.67° C | - | - | 0 mm | 1.79 m/s, 45° | - | - |
| 1778031419 | - | - | - | 0 mm | 4.02 m/s, 158° | - | - |
| 1778031119 | - | - | - | 0 mm | 1.79 m/s, 180° | - | - |
| 1778029917 | 18.33° C | - | - | 0 mm | 2.24 m/s, 45° | - | - |
| 1778029618 | - | - | - | 0 mm | 1.79 m/s, 180° | - | - |
| 1778029317 | 17.78° C | - | - | - | 2.24 m/s, 158° | - | - |
| 1778025718 | 18.89° C | - | - | - | 2.24 m/s, 90° | - | - |
| 1778025418 | - | - | - | 0 mm | 2.68 m/s, 135° | - | - |
| 1778025118 | 19.44° C | - | - | 0 mm | 3.13 m/s, 158° | - | - |
| 1778024520 | 18.89° C | - | - | 0 mm | 3.13 m/s, 113° | - | - |
| 1778024219 | 18.89° C | - | - | 0 mm | 3.58 m/s, 113° | - | - |
* Rain since midnight (hover to see other rain measurements)
** Current wind speed in m/s (hover to see current wind gust speed)